sensor_id;sensor_type;location;lat;lon;timestamp;temperature;humidity
15926;DHT22;8062;53.882;10.642;2024-01-10T00:00:11;-6.20;99.90
15926;DHT22;8062;53.882;10.642;2024-01-10T00:01:31;-6.20;99.90
15926;DHT22;8062;53.882;10.642;2024-01-10T00:02:51;-6.10;99.90
15926;DHT22;8062;53.882;10.642;2024-01-10T00:04:11;-6.10;99.90
15926;DHT22;8062;53.882;10.642;2024-01-10T00:05:30;-6.10;99.90
15926;DHT22;8062;53.882;10.642;2024-01-10T00:06:50;-6.10;99.90
15926;DHT22;8062;53.882;10.642;2024-01-10T00:08:09;-6.10;99.90
15926;DHT22;8062;53.882;10.642;2024-01-10T00:09:29;-6.10;99.90
15926;DHT22;8062;53.882;10.642;2024-01-10T00:10:48;-6.00;99.90
15926;DHT22;8062;53.882;10.642;2024-01-10T00:12:07;-6.00;99.90
15926;DHT22;8062;53.882;10.642;2024-01-10T00:13:27;-6.00;99.90
15926;DHT22;8062;53.882;10.642;2024-01-10T00:14:47;-5.90;99.90
15926;DHT22;8062;53.882;10.642;2024-01-10T00:16:06;-5.90;99.90
15926;DHT22;8062;53.882;10.642;2024-01-10T00:17:26;-5.80;99.90
15926;DHT22;8062;53.882;10.642;2024-01-10T00:18:45;-5.80;99.90
15926;DHT22;8062;53.882;10.642;2024-01-10T00:20:05;-5.80;99.90
15926;DHT22;8062;53.882;10.642;2024-01-10T00:21:25;-5.80;99.90
15926;DHT22;8062;53.882;10.642;2024-01-10T00:22:44;-5.70;99.90
15926;DHT22;8062;53.882;10.642;2024-01-10T00:24:04;-5.70;99.90
15926;DHT22;8062;53.882;10.642;2024-01-10T00:25:23;-5.60;99.90
15926;DHT22;8062;53.882;10.642;2024-01-10T00:26:43;-5.60;99.90
15926;DHT22;8062;53.882;10.642;2024-01-10T00:28:03;-5.60;99.90
15926;DHT22;8062;53.882;10.642;2024-01-10T00:29:22;-5.60;99.90
15926;DHT22;8062;53.882;10.642;2024-01-10T00:30:42;-5.60;99.90
15926;DHT22;8062;53.882;10.642;2024-01-10T00:32:02;-5.50;99.90
15926;DHT22;8062;53.882;10.642;2024-01-10T00:33:21;-5.50;99.90
15926;DHT22;8062;53.882;10.642;2024-01-10T00:34:41;-5.50;99.90
15926;DHT22;8062;53.882;10.642;2024-01-10T00:36:00;-5.50;99.90
15926;DHT22;8062;53.882;10.642;2024-01-10T00:37:20;-5.50;99.90
15926;DHT22;8062;53.882;10.642;2024-01-10T00:38:40;-5.50;99.90
15926;DHT22;8062;53.882;10.642;2024-01-10T00:39:59;-5.50;99.90
15926;DHT22;8062;53.882;10.642;2024-01-10T00:41:18;-5.40;99.90
15926;DHT22;8062;53.882;10.642;2024-01-10T00:42:38;-5.40;99.90
15926;DHT22;8062;53.882;10.642;2024-01-10T00:43:57;-5.30;99.90
15926;DHT22;8062;53.882;10.642;2024-01-10T00:45:17;-5.30;99.90
15926;DHT22;8062;53.882;10.642;2024-01-10T00:46:36;-5.30;99.90
15926;DHT22;8062;53.882;10.642;2024-01-10T00:47:55;-5.30;99.90
15926;DHT22;8062;53.882;10.642;2024-01-10T00:49:15;-5.20;99.90
15926;DHT22;8062;53.882;10.642;2024-01-10T00:50:35;-5.20;99.90
15926;DHT22;8062;53.882;10.642;2024-01-10T00:51:54;-5.10;99.90
15926;DHT22;8062;53.882;10.642;2024-01-10T00:53:14;-5.10;99.90
15926;DHT22;8062;53.882;10.642;2024-01-10T00:54:33;-5.10;99.90
15926;DHT22;8062;53.882;10.642;2024-01-10T00:55:53;-5.10;99.90
15926;DHT22;8062;53.882;10.642;2024-01-10T00:57:12;-5.00;99.90
15926;DHT22;8062;53.882;10.642;2024-01-10T00:58:32;-4.90;99.90
15926;DHT22;8062;53.882;10.642;2024-01-10T00:59:51;-4.90;99.90
15926;DHT22;8062;53.882;10.642;2024-01-10T01:01:11;-4.90;99.90
15926;DHT22;8062;53.882;10.642;2024-01-10T01:02:30;-4.90;99.90
15926;DHT22;8062;53.882;10.642;2024-01-10T01:03:50;-4.90;99.90
15926;DHT22;8062;53.882;10.642;2024-01-10T01:05:09;-4.90;99.90
15926;DHT22;8062;53.882;10.642;2024-01-10T01:06:29;-4.90;99.90
15926;DHT22;8062;53.882;10.642;2024-01-10T01:07:48;-4.80;99.90
15926;DHT22;8062;53.882;10.642;2024-01-10T01:09:08;-4.80;99.90
15926;DHT22;8062;53.882;10.642;2024-01-10T01:10:28;-4.80;99.90
15926;DHT22;8062;53.882;10.642;2024-01-10T01:11:47;-4.80;99.90
15926;DHT22;8062;53.882;10.642;2024-01-10T01:13:06;-4.80;99.90
15926;DHT22;8062;53.882;10.642;2024-01-10T01:14:26;-4.70;99.90
15926;DHT22;8062;53.882;10.642;2024-01-10T01:15:46;-4.70;99.90
15926;DHT22;8062;53.882;10.642;2024-01-10T01:17:05;-4.60;99.90
15926;DHT22;8062;53.882;10.642;2024-01-10T01:18:25;-4.60;99.90
15926;DHT22;8062;53.882;10.642;2024-01-10T01:19:44;-4.50;99.90
15926;DHT22;8062;53.882;10.642;2024-01-10T01:21:04;-4.50;99.90
15926;DHT22;8062;53.882;10.642;2024-01-10T01:22:23;-4.40;99.90
15926;DHT22;8062;53.882;10.642;2024-01-10T01:23:43;-4.30;99.90
15926;DHT22;8062;53.882;10.642;2024-01-10T01:25:03;-4.40;99.90
15926;DHT22;8062;53.882;10.642;2024-01-10T01:26:22;-4.40;99.90
15926;DHT22;8062;53.882;10.642;2024-01-10T01:27:42;-4.30;99.90
15926;DHT22;8062;53.882;10.642;2024-01-10T01:29:01;-4.20;99.90
15926;DHT22;8062;53.882;10.642;2024-01-10T01:30:21;-4.20;99.90
15926;DHT22;8062;53.882;10.642;2024-01-10T01:31:41;-4.10;99.90
15926;DHT22;8062;53.882;10.642;2024-01-10T01:33:00;-4.20;99.90
15926;DHT22;8062;53.882;10.642;2024-01-10T01:34:20;-4.20;99.90
15926;DHT22;8062;53.882;10.642;2024-01-10T01:35:39;-4.10;99.90
15926;DHT22;8062;53.882;10.642;2024-01-10T01:36:58;-4.10;99.90
15926;DHT22;8062;53.882;10.642;2024-01-10T01:38:18;-4.10;99.90
15926;DHT22;8062;53.882;10.642;2024-01-10T01:39:37;-4.10;99.90
15926;DHT22;8062;53.882;10.642;2024-01-10T01:40:57;-4.10;99.90
15926;DHT22;8062;53.882;10.642;2024-01-10T01:42:17;-4.10;99.90
15926;DHT22;8062;53.882;10.642;2024-01-10T01:43:36;-4.10;99.90
15926;DHT22;8062;53.882;10.642;2024-01-10T01:44:56;-4.10;99.90
15926;DHT22;8062;53.882;10.642;2024-01-10T01:46:15;-4.00;99.90
15926;DHT22;8062;53.882;10.642;2024-01-10T01:47:35;-4.00;99.90
15926;DHT22;8062;53.882;10.642;2024-01-10T01:48:54;-4.00;99.90
15926;DHT22;8062;53.882;10.642;2024-01-10T01:50:14;-4.00;99.90
15926;DHT22;8062;53.882;10.642;2024-01-10T01:51:35;-4.00;99.90
15926;DHT22;8062;53.882;10.642;2024-01-10T01:52:55;-4.00;99.90
15926;DHT22;8062;53.882;10.642;2024-01-10T01:54:15;-4.00;99.90
15926;DHT22;8062;53.882;10.642;2024-01-10T01:55:34;-4.00;99.90
15926;DHT22;8062;53.882;10.642;2024-01-10T01:56:54;-3.90;99.90
15926;DHT22;8062;53.882;10.642;2024-01-10T01:58:14;-3.90;99.90
15926;DHT22;8062;53.882;10.642;2024-01-10T01:59:34;-4.00;99.90
15926;DHT22;8062;53.882;10.642;2024-01-10T02:00:54;-4.00;99.90
15926;DHT22;8062;53.882;10.642;2024-01-10T02:02:16;-4.00;99.90
15926;DHT22;8062;53.882;10.642;2024-01-10T02:03:36;-4.10;99.90
15926;DHT22;8062;53.882;10.642;2024-01-10T02:04:55;-4.00;99.90
15926;DHT22;8062;53.882;10.642;2024-01-10T02:06:14;-4.00;99.90
15926;DHT22;8062;53.882;10.642;2024-01-10T02:07:34;-4.10;99.90
15926;DHT22;8062;53.882;10.642;2024-01-10T02:08:54;-4.10;99.90
15926;DHT22;8062;53.882;10.642;2024-01-10T02:10:14;-4.00;99.90
15926;DHT22;8062;53.882;10.642;2024-01-10T02:11:33;-4.10;99.90
15926;DHT22;8062;53.882;10.642;2024-01-10T02:12:52;-4.20;99.90
15926;DHT22;8062;53.882;10.642;2024-01-10T02:14:12;-4.20;99.90
15926;DHT22;8062;53.882;10.642;2024-01-10T02:15:32;-4.20;99.90
15926;DHT22;8062;53.882;10.642;2024-01-10T02:16:52;-4.30;99.90
15926;DHT22;8062;53.882;10.642;2024-01-10T02:18:12;-4.30;99.90
15926;DHT22;8062;53.882;10.642;2024-01-10T02:19:33;-4.30;99.90
15926;DHT22;8062;53.882;10.642;2024-01-10T02:20:54;-4.40;99.90
15926;DHT22;8062;53.882;10.642;2024-01-10T02:22:13;-4.40;99.90
15926;DHT22;8062;53.882;10.642;2024-01-10T02:23:32;-4.50;99.90
15926;DHT22;8062;53.882;10.642;2024-01-10T02:24:54;-4.50;99.90
15926;DHT22;8062;53.882;10.642;2024-01-10T02:26:15;-4.50;99.90
15926;DHT22;8062;53.882;10.642;2024-01-10T02:27:39;-4.40;99.90
15926;DHT22;8062;53.882;10.642;2024-01-10T02:28:58;-4.50;99.90
15926;DHT22;8062;53.882;10.642;2024-01-10T02:30:18;-4.40;99.90
15926;DHT22;8062;53.882;10.642;2024-01-10T02:31:38;-4.40;99.90
15926;DHT22;8062;53.882;10.642;2024-01-10T02:32:57;-4.40;99.90
15926;DHT22;8062;53.882;10.642;2024-01-10T02:34:17;-4.40;99.90
15926;DHT22;8062;53.882;10.642;2024-01-10T02:35:36;-4.50;99.90
15926;DHT22;8062;53.882;10.642;2024-01-10T02:36:56;-4.50;99.90
15926;DHT22;8062;53.882;10.642;2024-01-10T02:38:16;-4.50;99.90
15926;DHT22;8062;53.882;10.642;2024-01-10T02:39:35;-4.50;99.90
15926;DHT22;8062;53.882;10.642;2024-01-10T02:40:55;-4.40;99.90
15926;DHT22;8062;53.882;10.642;2024-01-10T02:42:16;-4.40;99.90
15926;DHT22;8062;53.882;10.642;2024-01-10T02:43:35;-4.40;99.90
15926;DHT22;8062;53.882;10.642;2024-01-10T02:44:55;-4.40;99.90
15926;DHT22;8062;53.882;10.642;2024-01-10T02:46:15;-4.40;99.90
15926;DHT22;8062;53.882;10.642;2024-01-10T02:47:35;-4.40;99.90
15926;DHT22;8062;53.882;10.642;2024-01-10T02:48:55;-4.40;99.90
15926;DHT22;8062;53.882;10.642;2024-01-10T02:50:14;-4.40;99.90
15926;DHT22;8062;53.882;10.642;2024-01-10T02:51:35;-4.50;99.90
15926;DHT22;8062;53.882;10.642;2024-01-10T02:52:55;-4.50;99.90
15926;DHT22;8062;53.882;10.642;2024-01-10T02:54:14;-4.50;99.90
15926;DHT22;8062;53.882;10.642;2024-01-10T02:55:34;-4.40;99.90
15926;DHT22;8062;53.882;10.642;2024-01-10T02:56:53;-4.40;99.90
15926;DHT22;8062;53.882;10.642;2024-01-10T02:58:13;-4.50;99.90
15926;DHT22;8062;53.882;10.642;2024-01-10T02:59:32;-4.50;99.90
15926;DHT22;8062;53.882;10.642;2024-01-10T03:00:51;-4.50;99.90
15926;DHT22;8062;53.882;10.642;2024-01-10T03:02:11;-4.50;99.90
15926;DHT22;8062;53.882;10.642;2024-01-10T03:03:30;-4.50;99.90
15926;DHT22;8062;53.882;10.642;2024-01-10T03:04:50;-4.40;99.90
15926;DHT22;8062;53.882;10.642;2024-01-10T03:06:10;-4.40;99.90
15926;DHT22;8062;53.882;10.642;2024-01-10T03:07:29;-4.40;99.90
15926;DHT22;8062;53.882;10.642;2024-01-10T03:08:49;-4.40;99.90
15926;DHT22;8062;53.882;10.642;2024-01-10T03:10:09;-4.30;99.90
15926;DHT22;8062;53.882;10.642;2024-01-10T03:11:29;-4.30;99.90
15926;DHT22;8062;53.882;10.642;2024-01-10T03:12:50;-4.30;99.90
15926;DHT22;8062;53.882;10.642;2024-01-10T03:14:11;-4.20;99.90
15926;DHT22;8062;53.882;10.642;2024-01-10T03:15:30;-4.20;99.90
15926;DHT22;8062;53.882;10.642;2024-01-10T03:16:50;-4.20;99.90
15926;DHT22;8062;53.882;10.642;2024-01-10T03:18:10;-4.20;99.90
15926;DHT22;8062;53.882;10.642;2024-01-10T03:19:29;-4.20;99.90
15926;DHT22;8062;53.882;10.642;2024-01-10T03:20:49;-4.20;99.90
15926;DHT22;8062;53.882;10.642;2024-01-10T03:22:08;-4.20;99.90
15926;DHT22;8062;53.882;10.642;2024-01-10T03:23:28;-4.30;99.90
15926;DHT22;8062;53.882;10.642;2024-01-10T03:24:48;-4.20;99.90
15926;DHT22;8062;53.882;10.642;2024-01-10T03:26:09;-4.20;99.90
15926;DHT22;8062;53.882;10.642;2024-01-10T03:27:28;-4.20;99.90
15926;DHT22;8062;53.882;10.642;2024-01-10T03:28:48;-4.20;99.90
15926;DHT22;8062;53.882;10.642;2024-01-10T03:30:08;-4.20;99.90
15926;DHT22;8062;53.882;10.642;2024-01-10T03:31:29;-4.20;99.90
15926;DHT22;8062;53.882;10.642;2024-01-10T03:32:50;-4.20;99.90
15926;DHT22;8062;53.882;10.642;2024-01-10T03:34:10;-4.20;99.90
15926;DHT22;8062;53.882;10.642;2024-01-10T03:35:29;-4.20;99.90
15926;DHT22;8062;53.882;10.642;2024-01-10T03:36:48;-4.20;99.90
15926;DHT22;8062;53.882;10.642;2024-01-10T03:38:08;-4.10;99.90
15926;DHT22;8062;53.882;10.642;2024-01-10T03:39:27;-4.00;99.90
15926;DHT22;8062;53.882;10.642;2024-01-10T03:40:47;-4.00;99.90
15926;DHT22;8062;53.882;10.642;2024-01-10T03:42:07;-4.10;99.90
15926;DHT22;8062;53.882;10.642;2024-01-10T03:43:26;-4.10;99.90
15926;DHT22;8062;53.882;10.642;2024-01-10T03:44:46;-4.10;99.90
15926;DHT22;8062;53.882;10.642;2024-01-10T03:46:05;-4.10;99.90
15926;DHT22;8062;53.882;10.642;2024-01-10T03:47:25;-4.00;99.90
15926;DHT22;8062;53.882;10.642;2024-01-10T03:48:45;-4.10;99.90
15926;DHT22;8062;53.882;10.642;2024-01-10T03:50:07;-4.10;99.90
15926;DHT22;8062;53.882;10.642;2024-01-10T03:51:28;-4.10;99.90
15926;DHT22;8062;53.882;10.642;2024-01-10T03:52:48;-4.10;99.90
15926;DHT22;8062;53.882;10.642;2024-01-10T03:54:08;-4.10;99.90
15926;DHT22;8062;53.882;10.642;2024-01-10T03:55:27;-4.00;99.90
15926;DHT22;8062;53.882;10.642;2024-01-10T03:56:47;-4.00;99.90
15926;DHT22;8062;53.882;10.642;2024-01-10T03:58:06;-4.00;99.90
15926;DHT22;8062;53.882;10.642;2024-01-10T03:59:26;-4.00;99.90
15926;DHT22;8062;53.882;10.642;2024-01-10T04:00:45;-3.90;99.90
15926;DHT22;8062;53.882;10.642;2024-01-10T04:02:05;-3.90;99.90
15926;DHT22;8062;53.882;10.642;2024-01-10T04:03:24;-3.90;99.90
15926;DHT22;8062;53.882;10.642;2024-01-10T04:04:44;-3.90;99.90
15926;DHT22;8062;53.882;10.642;2024-01-10T04:06:03;-3.90;99.90
15926;DHT22;8062;53.882;10.642;2024-01-10T04:07:23;-3.90;99.90
15926;DHT22;8062;53.882;10.642;2024-01-10T04:08:43;-4.00;99.90
15926;DHT22;8062;53.882;10.642;2024-01-10T04:10:03;-4.00;99.90
15926;DHT22;8062;53.882;10.642;2024-01-10T04:11:23;-3.90;99.90
15926;DHT22;8062;53.882;10.642;2024-01-10T04:12:43;-3.90;99.90
15926;DHT22;8062;53.882;10.642;2024-01-10T04:14:03;-4.00;99.90
15926;DHT22;8062;53.882;10.642;2024-01-10T04:15:23;-3.90;99.90
15926;DHT22;8062;53.882;10.642;2024-01-10T04:16:42;-3.90;99.90
15926;DHT22;8062;53.882;10.642;2024-01-10T04:18:01;-3.90;99.90
15926;DHT22;8062;53.882;10.642;2024-01-10T04:19:22;-3.90;99.90
15926;DHT22;8062;53.882;10.642;2024-01-10T04:20:41;-3.80;99.90
15926;DHT22;8062;53.882;10.642;2024-01-10T04:22:01;-3.70;99.90
15926;DHT22;8062;53.882;10.642;2024-01-10T04:23:21;-3.80;99.90
15926;DHT22;8062;53.882;10.642;2024-01-10T04:24:40;-3.80;99.90
15926;DHT22;8062;53.882;10.642;2024-01-10T04:26:01;-3.80;99.90
15926;DHT22;8062;53.882;10.642;2024-01-10T04:27:22;-3.80;99.90
15926;DHT22;8062;53.882;10.642;2024-01-10T04:28:41;-3.80;99.90
15926;DHT22;8062;53.882;10.642;2024-01-10T04:30:00;-3.70;99.90
15926;DHT22;8062;53.882;10.642;2024-01-10T04:31:20;-3.70;99.90
15926;DHT22;8062;53.882;10.642;2024-01-10T04:32:39;-3.80;99.90
15926;DHT22;8062;53.882;10.642;2024-01-10T04:33:59;-3.70;99.90
15926;DHT22;8062;53.882;10.642;2024-01-10T04:35:18;-3.80;99.90
15926;DHT22;8062;53.882;10.642;2024-01-10T04:36:38;-3.80;99.90
15926;DHT22;8062;53.882;10.642;2024-01-10T04:37:58;-3.70;99.90
15926;DHT22;8062;53.882;10.642;2024-01-10T04:39:17;-3.70;99.90
15926;DHT22;8062;53.882;10.642;2024-01-10T04:40:37;-3.70;99.90
15926;DHT22;8062;53.882;10.642;2024-01-10T04:41:57;-3.70;99.90
15926;DHT22;8062;53.882;10.642;2024-01-10T04:43:16;-3.70;99.90
15926;DHT22;8062;53.882;10.642;2024-01-10T04:44:36;-3.70;99.90
15926;DHT22;8062;53.882;10.642;2024-01-10T04:45:55;-3.70;99.90
15926;DHT22;8062;53.882;10.642;2024-01-10T04:47:15;-3.60;99.90
15926;DHT22;8062;53.882;10.642;2024-01-10T04:48:35;-3.60;99.90
15926;DHT22;8062;53.882;10.642;2024-01-10T04:49:55;-3.70;99.90
15926;DHT22;8062;53.882;10.642;2024-01-10T04:51:14;-3.60;99.90
15926;DHT22;8062;53.882;10.642;2024-01-10T04:52:34;-3.60;99.90
15926;DHT22;8062;53.882;10.642;2024-01-10T04:53:53;-3.60;99.90
15926;DHT22;8062;53.882;10.642;2024-01-10T04:55:13;-3.60;99.90
15926;DHT22;8062;53.882;10.642;2024-01-10T04:56:32;-3.60;99.90
15926;DHT22;8062;53.882;10.642;2024-01-10T04:57:51;-3.60;99.90
15926;DHT22;8062;53.882;10.642;2024-01-10T04:59:11;-3.60;99.90
15926;DHT22;8062;53.882;10.642;2024-01-10T05:00:31;-3.50;99.90
15926;DHT22;8062;53.882;10.642;2024-01-10T05:01:50;-3.50;99.90
15926;DHT22;8062;53.882;10.642;2024-01-10T05:03:09;-3.50;99.90
15926;DHT22;8062;53.882;10.642;2024-01-10T05:04:29;-3.50;99.90
15926;DHT22;8062;53.882;10.642;2024-01-10T05:05:49;-3.50;99.90
15926;DHT22;8062;53.882;10.642;2024-01-10T05:07:08;-3.50;99.90
15926;DHT22;8062;53.882;10.642;2024-01-10T05:08:28;-3.50;99.90
15926;DHT22;8062;53.882;10.642;2024-01-10T05:09:47;-3.50;99.90
15926;DHT22;8062;53.882;10.642;2024-01-10T05:11:07;-3.50;99.90
15926;DHT22;8062;53.882;10.642;2024-01-10T05:12:26;-3.50;99.90
15926;DHT22;8062;53.882;10.642;2024-01-10T05:13:47;-3.50;99.90
15926;DHT22;8062;53.882;10.642;2024-01-10T05:15:07;-3.50;99.90
15926;DHT22;8062;53.882;10.642;2024-01-10T05:16:26;-3.40;99.90
15926;DHT22;8062;53.882;10.642;2024-01-10T05:17:45;-3.40;99.90
15926;DHT22;8062;53.882;10.642;2024-01-10T05:19:05;-3.40;99.90
15926;DHT22;8062;53.882;10.642;2024-01-10T05:20:24;-3.40;99.90
15926;DHT22;8062;53.882;10.642;2024-01-10T05:21:43;-3.30;99.90
15926;DHT22;8062;53.882;10.642;2024-01-10T05:23:03;-3.30;99.90
15926;DHT22;8062;53.882;10.642;2024-01-10T05:24:23;-3.30;99.90
15926;DHT22;8062;53.882;10.642;2024-01-10T05:25:42;-3.30;99.90
15926;DHT22;8062;53.882;10.642;2024-01-10T05:27:02;-3.30;99.90
15926;DHT22;8062;53.882;10.642;2024-01-10T05:28:22;-3.30;99.90
15926;DHT22;8062;53.882;10.642;2024-01-10T05:29:41;-3.30;99.90
15926;DHT22;8062;53.882;10.642;2024-01-10T05:31:01;-3.20;99.90
15926;DHT22;8062;53.882;10.642;2024-01-10T05:32:21;-3.30;99.90
15926;DHT22;8062;53.882;10.642;2024-01-10T05:33:40;-3.20;99.90
15926;DHT22;8062;53.882;10.642;2024-01-10T05:35:01;-3.30;99.90
15926;DHT22;8062;53.882;10.642;2024-01-10T05:36:24;-3.20;99.90
15926;DHT22;8062;53.882;10.642;2024-01-10T05:37:43;-3.20;99.90
15926;DHT22;8062;53.882;10.642;2024-01-10T05:39:03;-3.20;99.90
15926;DHT22;8062;53.882;10.642;2024-01-10T05:40:23;-3.20;99.90
15926;DHT22;8062;53.882;10.642;2024-01-10T05:41:43;-3.20;99.90
15926;DHT22;8062;53.882;10.642;2024-01-10T05:43:03;-3.20;99.90
15926;DHT22;8062;53.882;10.642;2024-01-10T05:44:22;-3.20;99.90
15926;DHT22;8062;53.882;10.642;2024-01-10T05:45:41;-3.20;99.90
15926;DHT22;8062;53.882;10.642;2024-01-10T05:47:01;-3.10;99.90
15926;DHT22;8062;53.882;10.642;2024-01-10T05:48:20;-3.20;99.90
15926;DHT22;8062;53.882;10.642;2024-01-10T05:49:40;-3.10;99.90
15926;DHT22;8062;53.882;10.642;2024-01-10T05:50:59;-3.10;99.90
15926;DHT22;8062;53.882;10.642;2024-01-10T05:52:20;-3.20;99.90
15926;DHT22;8062;53.882;10.642;2024-01-10T05:53:40;-3.10;99.90
15926;DHT22;8062;53.882;10.642;2024-01-10T05:55:00;-3.10;99.90
15926;DHT22;8062;53.882;10.642;2024-01-10T05:56:21;-3.10;99.90
15926;DHT22;8062;53.882;10.642;2024-01-10T05:57:42;-3.10;99.90
15926;DHT22;8062;53.882;10.642;2024-01-10T05:59:02;-3.10;99.90
15926;DHT22;8062;53.882;10.642;2024-01-10T06:00:21;-3.10;99.90
15926;DHT22;8062;53.882;10.642;2024-01-10T06:01:40;-3.00;99.90
15926;DHT22;8062;53.882;10.642;2024-01-10T06:03:00;-3.00;99.90
15926;DHT22;8062;53.882;10.642;2024-01-10T06:04:19;-3.00;99.90
15926;DHT22;8062;53.882;10.642;2024-01-10T06:05:39;-3.00;99.90
15926;DHT22;8062;53.882;10.642;2024-01-10T06:07:00;-3.00;99.90
15926;DHT22;8062;53.882;10.642;2024-01-10T06:08:20;-3.00;99.90
15926;DHT22;8062;53.882;10.642;2024-01-10T06:09:40;-3.00;99.90
15926;DHT22;8062;53.882;10.642;2024-01-10T06:11:01;-3.00;99.90
15926;DHT22;8062;53.882;10.642;2024-01-10T06:12:21;-3.00;99.90
15926;DHT22;8062;53.882;10.642;2024-01-10T06:13:40;-2.90;99.90
15926;DHT22;8062;53.882;10.642;2024-01-10T06:15:00;-2.90;99.90
15926;DHT22;8062;53.882;10.642;2024-01-10T06:16:20;-2.90;99.90
15926;DHT22;8062;53.882;10.642;2024-01-10T06:17:40;-2.90;99.90
15926;DHT22;8062;53.882;10.642;2024-01-10T06:18:59;-2.90;99.90
15926;DHT22;8062;53.882;10.642;2024-01-10T06:20:18;-2.90;99.90
15926;DHT22;8062;53.882;10.642;2024-01-10T06:21:38;-2.80;99.90
15926;DHT22;8062;53.882;10.642;2024-01-10T06:22:57;-2.80;99.90
15926;DHT22;8062;53.882;10.642;2024-01-10T06:24:18;-2.80;99.90
15926;DHT22;8062;53.882;10.642;2024-01-10T06:25:37;-2.80;99.90
15926;DHT22;8062;53.882;10.642;2024-01-10T06:26:56;-2.80;99.90
15926;DHT22;8062;53.882;10.642;2024-01-10T06:28:16;-2.80;99.90
15926;DHT22;8062;53.882;10.642;2024-01-10T06:29:36;-2.80;99.90
15926;DHT22;8062;53.882;10.642;2024-01-10T06:30:56;-2.80;99.90
15926;DHT22;8062;53.882;10.642;2024-01-10T06:32:15;-2.80;99.90
15926;DHT22;8062;53.882;10.642;2024-01-10T06:33:35;-2.80;99.90
15926;DHT22;8062;53.882;10.642;2024-01-10T06:34:54;-2.90;99.90
15926;DHT22;8062;53.882;10.642;2024-01-10T06:36:14;-2.80;99.90
15926;DHT22;8062;53.882;10.642;2024-01-10T06:37:33;-2.80;99.90
15926;DHT22;8062;53.882;10.642;2024-01-10T06:38:52;-2.80;99.90
15926;DHT22;8062;53.882;10.642;2024-01-10T06:40:12;-2.80;99.90
15926;DHT22;8062;53.882;10.642;2024-01-10T06:41:32;-2.80;99.90
15926;DHT22;8062;53.882;10.642;2024-01-10T06:42:51;-2.80;99.90
15926;DHT22;8062;53.882;10.642;2024-01-10T06:44:11;-2.80;99.90
15926;DHT22;8062;53.882;10.642;2024-01-10T06:45:30;-2.70;99.90
15926;DHT22;8062;53.882;10.642;2024-01-10T06:46:50;-2.70;99.90
15926;DHT22;8062;53.882;10.642;2024-01-10T06:48:10;-2.80;99.90
15926;DHT22;8062;53.882;10.642;2024-01-10T06:49:30;-2.80;99.90
15926;DHT22;8062;53.882;10.642;2024-01-10T06:50:49;-2.80;99.90
15926;DHT22;8062;53.882;10.642;2024-01-10T06:52:08;-2.80;99.90
15926;DHT22;8062;53.882;10.642;2024-01-10T06:53:28;-2.80;99.90
15926;DHT22;8062;53.882;10.642;2024-01-10T06:54:48;-2.80;99.90
15926;DHT22;8062;53.882;10.642;2024-01-10T06:56:09;-2.90;99.90
15926;DHT22;8062;53.882;10.642;2024-01-10T06:57:28;-2.90;99.90
15926;DHT22;8062;53.882;10.642;2024-01-10T06:58:48;-2.80;99.90
15926;DHT22;8062;53.882;10.642;2024-01-10T07:00:08;-2.90;99.90
15926;DHT22;8062;53.882;10.642;2024-01-10T07:01:30;-2.80;99.90
15926;DHT22;8062;53.882;10.642;2024-01-10T07:02:49;-2.80;99.90
15926;DHT22;8062;53.882;10.642;2024-01-10T07:04:09;-2.80;99.90
15926;DHT22;8062;53.882;10.642;2024-01-10T07:05:28;-2.80;99.90
15926;DHT22;8062;53.882;10.642;2024-01-10T07:06:48;-2.80;99.90
15926;DHT22;8062;53.882;10.642;2024-01-10T07:08:07;-2.80;99.90
15926;DHT22;8062;53.882;10.642;2024-01-10T07:09:27;-2.80;99.90
15926;DHT22;8062;53.882;10.642;2024-01-10T07:10:46;-2.80;99.90
15926;DHT22;8062;53.882;10.642;2024-01-10T07:12:07;-2.80;99.90
15926;DHT22;8062;53.882;10.642;2024-01-10T07:13:26;-2.80;99.90
15926;DHT22;8062;53.882;10.642;2024-01-10T07:14:46;-2.80;99.90
15926;DHT22;8062;53.882;10.642;2024-01-10T07:16:06;-2.80;99.90
15926;DHT22;8062;53.882;10.642;2024-01-10T07:17:25;-2.70;99.90
15926;DHT22;8062;53.882;10.642;2024-01-10T07:18:45;-2.70;99.90
15926;DHT22;8062;53.882;10.642;2024-01-10T07:20:06;-2.70;99.90
15926;DHT22;8062;53.882;10.642;2024-01-10T07:21:26;-2.70;99.90
15926;DHT22;8062;53.882;10.642;2024-01-10T07:22:46;-2.70;99.90
15926;DHT22;8062;53.882;10.642;2024-01-10T07:24:05;-2.70;99.90
15926;DHT22;8062;53.882;10.642;2024-01-10T07:25:25;-2.80;99.90
15926;DHT22;8062;53.882;10.642;2024-01-10T07:26:44;-2.80;99.90
15926;DHT22;8062;53.882;10.642;2024-01-10T07:28:04;-2.80;99.90
15926;DHT22;8062;53.882;10.642;2024-01-10T07:29:23;-2.70;99.90
15926;DHT22;8062;53.882;10.642;2024-01-10T07:30:44;-2.70;99.90
15926;DHT22;8062;53.882;10.642;2024-01-10T07:32:03;-2.70;99.90
15926;DHT22;8062;53.882;10.642;2024-01-10T07:33:23;-2.70;99.90
15926;DHT22;8062;53.882;10.642;2024-01-10T07:34:42;-2.70;99.90
15926;DHT22;8062;53.882;10.642;2024-01-10T07:36:04;-2.70;99.90
15926;DHT22;8062;53.882;10.642;2024-01-10T07:37:24;-2.70;99.90
15926;DHT22;8062;53.882;10.642;2024-01-10T07:38:43;-2.70;99.90
15926;DHT22;8062;53.882;10.642;2024-01-10T07:40:04;-2.60;99.90
15926;DHT22;8062;53.882;10.642;2024-01-10T07:41:27;-2.60;99.90
15926;DHT22;8062;53.882;10.642;2024-01-10T07:42:46;-2.60;99.90
15926;DHT22;8062;53.882;10.642;2024-01-10T07:44:06;-2.60;99.90
15926;DHT22;8062;53.882;10.642;2024-01-10T07:45:26;-2.60;99.90
15926;DHT22;8062;53.882;10.642;2024-01-10T07:46:45;-2.70;99.90
15926;DHT22;8062;53.882;10.642;2024-01-10T07:48:05;-2.60;99.90
15926;DHT22;8062;53.882;10.642;2024-01-10T07:49:24;-2.60;99.90
15926;DHT22;8062;53.882;10.642;2024-01-10T07:50:44;-2.60;99.90
15926;DHT22;8062;53.882;10.642;2024-01-10T07:52:04;-2.60;99.90
15926;DHT22;8062;53.882;10.642;2024-01-10T07:53:24;-2.60;99.90
15926;DHT22;8062;53.882;10.642;2024-01-10T07:54:46;-2.60;99.90
15926;DHT22;8062;53.882;10.642;2024-01-10T07:56:05;-2.50;99.90
15926;DHT22;8062;53.882;10.642;2024-01-10T07:57:25;-2.50;99.90
15926;DHT22;8062;53.882;10.642;2024-01-10T07:58:46;-2.50;99.90
15926;DHT22;8062;53.882;10.642;2024-01-10T08:00:06;-2.50;99.90
15926;DHT22;8062;53.882;10.642;2024-01-10T08:01:29;-2.50;99.90
15926;DHT22;8062;53.882;10.642;2024-01-10T08:02:49;-2.50;99.90
15926;DHT22;8062;53.882;10.642;2024-01-10T08:04:09;-2.50;99.90
15926;DHT22;8062;53.882;10.642;2024-01-10T08:05:29;-2.40;99.90
15926;DHT22;8062;53.882;10.642;2024-01-10T08:06:48;-2.40;99.90
15926;DHT22;8062;53.882;10.642;2024-01-10T08:08:08;-2.40;99.90
15926;DHT22;8062;53.882;10.642;2024-01-10T08:09:28;-2.40;99.90
15926;DHT22;8062;53.882;10.642;2024-01-10T08:10:47;-2.30;99.90
15926;DHT22;8062;53.882;10.642;2024-01-10T08:12:07;-2.30;99.90
15926;DHT22;8062;53.882;10.642;2024-01-10T08:13:27;-2.30;99.90
15926;DHT22;8062;53.882;10.642;2024-01-10T08:14:46;-2.30;99.90
15926;DHT22;8062;53.882;10.642;2024-01-10T08:16:09;-2.30;99.90
15926;DHT22;8062;53.882;10.642;2024-01-10T08:17:28;-2.20;99.90
15926;DHT22;8062;53.882;10.642;2024-01-10T08:18:48;-2.20;99.90
15926;DHT22;8062;53.882;10.642;2024-01-10T08:20:08;-2.20;99.90
15926;DHT22;8062;53.882;10.642;2024-01-10T08:21:27;-2.20;99.90
15926;DHT22;8062;53.882;10.642;2024-01-10T08:22:47;-2.20;99.90